CFG069 LFKB-EDDL
Flight info
| Callsign | CFG069 |
|---|---|
| Flight time | 1h 43m |
| Altitude | 38000 |
| Route | MEGER2R MEGER Z911 OLETI DCT ABESI DCT LOKTA DCT TEDGO DCT HAREM DCT LOHRE Z850 ADEMI T854 DOMUX DOMUX1A |
| Aircraft | A320/M-SDE3FGHIRWY/LB1 |
Departure
| Time | 2026-04-17 10:40 |
|---|---|
| Airport | Bastia-Poretta International airport (LFKB) |
Arrival
| Time | 2026-04-17 12:24 |
|---|---|
| Airport | Düsseldorf Airport (EDDL) |
| Time | Latitude | Longitude | Altitude | Speed | Heading |
|---|---|---|---|---|---|
| 2026-04-17 10:09 | 42.54785 | 9.48182 | 31 ft | 0 kts | 283° |
| 2026-04-17 10:32 | 42.54780 | 9.48206 | 31 ft | 4 kts | 283° |
| 2026-04-17 10:32 | 42.54775 | 9.48242 | 31 ft | 4 kts | 278° |
| 2026-04-17 10:33 | 42.54775 | 9.48244 | 31 ft | 4 kts | 277° |
| 2026-04-17 10:33 | 42.54775 | 9.48246 | 31 ft | 4 kts | 277° |
| 2026-04-17 10:33 | 42.54773 | 9.48282 | 31 ft | 4 kts | 265° |
| 2026-04-17 10:33 | 42.54776 | 9.48309 | 31 ft | 0 kts | 250° |
| 2026-04-17 10:35 | 42.54769 | 9.48309 | 31 ft | 3 kts | 185° |
| 2026-04-17 10:35 | 42.54710 | 9.48330 | 31 ft | 14 kts | 162° |
| 2026-04-17 10:36 | 42.54595 | 9.48379 | 31 ft | 18 kts | 162° |
| 2026-04-17 10:36 | 42.54481 | 9.48419 | 33 ft | 16 kts | 175° |
| 2026-04-17 10:36 | 42.54380 | 9.48424 | 33 ft | 13 kts | 167° |
| 2026-04-17 10:36 | 42.54298 | 9.48458 | 34 ft | 11 kts | 163° |
| 2026-04-17 10:37 | 42.54228 | 9.48487 | 32 ft | 10 kts | 163° |
| 2026-04-17 10:37 | 42.54166 | 9.48524 | 35 ft | 13 kts | 142° |
| 2026-04-17 10:37 | 42.54127 | 9.48658 | 35 ft | 16 kts | 78° |
| 2026-04-17 10:37 | 42.54143 | 9.48715 | 35 ft | 0 kts | 58° |
| 2026-04-17 10:39 | 42.54154 | 9.48740 | 35 ft | 12 kts | 57° |
| 2026-04-17 10:39 | 42.54257 | 9.48793 | 34 ft | 16 kts | 342° |
| 2026-04-17 10:39 | 42.54268 | 9.48788 | 34 ft | 4 kts | 342° |
| 2026-04-17 10:40 | 42.54579 | 9.48660 | 30 ft | 85 kts | 342° |
| 2026-04-17 10:40 | 42.55352 | 9.48339 | 31 ft | 145 kts | 343° |
| 2026-04-17 10:40 | 42.56350 | 9.47918 | 554 ft | 149 kts | 345° |
| 2026-04-17 10:40 | 42.57361 | 9.47599 | 1257 ft | 150 kts | 352° |
| 2026-04-17 10:41 | 42.58463 | 9.47407 | 1611 ft | 171 kts | 357° |
| 2026-04-17 10:41 | 42.59707 | 9.47370 | 2045 ft | 189 kts | 2° |
| 2026-04-17 10:41 | 42.61094 | 9.47533 | 2442 ft | 213 kts | 9° |
| 2026-04-17 10:41 | 42.62626 | 9.47990 | 2926 ft | 239 kts | 17° |
| 2026-04-17 10:42 | 42.64243 | 9.48804 | 3526 ft | 254 kts | 21° |
| 2026-04-17 10:42 | 42.65903 | 9.49684 | 4379 ft | 258 kts | 21° |
| 2026-04-17 10:42 | 42.67592 | 9.50565 | 5271 ft | 262 kts | 21° |
| 2026-04-17 10:42 | 42.69312 | 9.51454 | 6150 ft | 267 kts | 21° |
| 2026-04-17 10:43 | 42.70489 | 9.52060 | 6730 ft | 269 kts | 21° |
| 2026-04-17 10:43 | 42.72865 | 9.53132 | 7825 ft | 274 kts | 15° |
| 2026-04-17 10:43 | 42.74118 | 9.53584 | 8407 ft | 276 kts | 15° |
| 2026-04-17 10:43 | 42.75984 | 9.54268 | 9255 ft | 280 kts | 15° |
| 2026-04-17 10:44 | 42.77876 | 9.54968 | 10104 ft | 283 kts | 15° |
| 2026-04-17 10:44 | 42.79816 | 9.55691 | 10567 ft | 300 kts | 15° |
| 2026-04-17 10:44 | 42.81878 | 9.56456 | 10812 ft | 322 kts | 15° |
| 2026-04-17 10:44 | 42.84113 | 9.57282 | 11332 ft | 333 kts | 15° |
| 2026-04-17 10:45 | 42.86337 | 9.58105 | 12028 ft | 338 kts | 15° |
| 2026-04-17 10:45 | 42.88648 | 9.58966 | 12756 ft | 342 kts | 15° |
| 2026-04-17 10:45 | 42.90926 | 9.59814 | 13466 ft | 346 kts | 15° |
| 2026-04-17 10:45 | 42.93267 | 9.60683 | 13996 ft | 351 kts | 15° |
| 2026-04-17 10:46 | 42.95645 | 9.61430 | 14111 ft | 351 kts | 7° |
| 2026-04-17 10:46 | 42.98081 | 9.61409 | 14138 ft | 351 kts | 352° |
| 2026-04-17 10:46 | 43.00433 | 9.60518 | 14137 ft | 352 kts | 337° |
| 2026-04-17 10:46 | 43.02533 | 9.58831 | 14137 ft | 354 kts | 322° |
| 2026-04-17 10:47 | 43.04343 | 9.56523 | 14144 ft | 355 kts | 316° |
| 2026-04-17 10:47 | 43.06099 | 9.54154 | 14140 ft | 355 kts | 316° |
| 2026-04-17 10:47 | 43.07856 | 9.51786 | 14142 ft | 355 kts | 316° |
| 2026-04-17 10:47 | 43.09616 | 9.49419 | 14142 ft | 355 kts | 316° |
| 2026-04-17 10:48 | 43.11375 | 9.47054 | 14142 ft | 355 kts | 316° |
| 2026-04-17 10:48 | 43.13135 | 9.44689 | 14142 ft | 355 kts | 316° |
| 2026-04-17 10:48 | 43.14896 | 9.42324 | 14142 ft | 355 kts | 316° |
| 2026-04-17 10:48 | 43.16658 | 9.39958 | 14143 ft | 354 kts | 316° |
| 2026-04-17 10:49 | 43.18418 | 9.37594 | 14141 ft | 355 kts | 316° |
| 2026-04-17 10:49 | 43.20177 | 9.35224 | 14143 ft | 355 kts | 316° |
| 2026-04-17 10:49 | 43.21931 | 9.32853 | 14143 ft | 354 kts | 316° |
| 2026-04-17 10:49 | 43.23686 | 9.30475 | 14142 ft | 354 kts | 316° |
| 2026-04-17 10:50 | 43.25440 | 9.28095 | 14147 ft | 355 kts | 316° |
| 2026-04-17 10:50 | 43.27191 | 9.25718 | 14147 ft | 354 kts | 316° |
| 2026-04-17 10:50 | 43.28945 | 9.23339 | 14148 ft | 354 kts | 316° |
| 2026-04-17 10:50 | 43.30693 | 9.20959 | 14147 ft | 354 kts | 316° |
| 2026-04-17 10:51 | 43.32575 | 9.18782 | 14147 ft | 353 kts | 327° |
| 2026-04-17 10:51 | 43.34741 | 9.17192 | 14255 ft | 356 kts | 340° |
| 2026-04-17 10:51 | 43.37118 | 9.16240 | 14947 ft | 357 kts | 347° |
| 2026-04-17 10:51 | 43.39531 | 9.15413 | 15654 ft | 358 kts | 346° |
| 2026-04-17 10:52 | 43.41953 | 9.14566 | 16321 ft | 360 kts | 346° |
| 2026-04-17 10:52 | 43.44392 | 9.13707 | 16979 ft | 363 kts | 346° |
| 2026-04-17 10:52 | 43.46844 | 9.12843 | 17639 ft | 365 kts | 346° |
| 2026-04-17 10:52 | 43.49315 | 9.11979 | 18285 ft | 368 kts | 346° |
| 2026-04-17 10:53 | 43.51806 | 9.11109 | 18865 ft | 370 kts | 346° |
| 2026-04-17 10:53 | 43.54311 | 9.10232 | 19419 ft | 373 kts | 346° |
| 2026-04-17 10:53 | 43.56836 | 9.09346 | 19977 ft | 376 kts | 346° |
| 2026-04-17 10:53 | 43.59377 | 9.08455 | 20535 ft | 378 kts | 346° |
| 2026-04-17 10:54 | 43.61937 | 9.07558 | 21084 ft | 381 kts | 346° |
| 2026-04-17 10:54 | 43.64516 | 9.06657 | 21635 ft | 384 kts | 346° |
| 2026-04-17 10:54 | 43.67115 | 9.05752 | 22174 ft | 387 kts | 346° |
| 2026-04-17 10:54 | 43.69732 | 9.04839 | 22715 ft | 389 kts | 346° |
| 2026-04-17 10:55 | 43.72370 | 9.03912 | 23240 ft | 392 kts | 346° |
| 2026-04-17 10:55 | 43.75022 | 9.02978 | 23737 ft | 395 kts | 346° |
| 2026-04-17 10:55 | 43.77694 | 9.02035 | 24150 ft | 398 kts | 346° |
| 2026-04-17 10:55 | 43.80397 | 9.01175 | 24555 ft | 400 kts | 351° |
| 2026-04-17 10:56 | 43.83176 | 9.00882 | 24947 ft | 402 kts | 0° |
| 2026-04-17 10:56 | 43.85983 | 9.00934 | 25332 ft | 405 kts | 0° |
| 2026-04-17 10:56 | 43.88805 | 9.00978 | 25713 ft | 407 kts | 0° |
| 2026-04-17 10:56 | 43.91646 | 9.01017 | 26080 ft | 409 kts | 0° |
| 2026-04-17 10:57 | 43.94503 | 9.01057 | 26445 ft | 412 kts | 0° |
| 2026-04-17 10:57 | 43.97376 | 9.01099 | 26807 ft | 414 kts | 0° |
| 2026-04-17 10:57 | 44.00262 | 9.01141 | 27168 ft | 416 kts | 0° |
| 2026-04-17 10:57 | 44.03170 | 9.01184 | 27515 ft | 419 kts | 360° |
| 2026-04-17 10:58 | 44.06088 | 9.01226 | 27857 ft | 421 kts | 360° |
| 2026-04-17 10:58 | 44.09026 | 9.01264 | 28190 ft | 423 kts | 360° |
| 2026-04-17 10:58 | 44.11939 | 9.01302 | 28511 ft | 426 kts | 360° |
| 2026-04-17 10:58 | 44.14948 | 9.01343 | 28841 ft | 428 kts | 360° |
| 2026-04-17 10:59 | 44.17892 | 9.01385 | 29145 ft | 430 kts | 360° |
| 2026-04-17 10:59 | 44.20891 | 9.01427 | 29449 ft | 432 kts | 359° |
| 2026-04-17 10:59 | 44.23911 | 9.01468 | 29740 ft | 435 kts | 359° |
| 2026-04-17 10:59 | 44.26940 | 9.01509 | 30023 ft | 437 kts | 359° |
| 2026-04-17 11:00 | 44.29988 | 9.01552 | 30281 ft | 439 kts | 359° |
| 2026-04-17 11:00 | 44.33049 | 9.01592 | 30493 ft | 441 kts | 359° |
| 2026-04-17 11:00 | 44.36125 | 9.01631 | 30708 ft | 443 kts | 359° |
| 2026-04-17 11:00 | 44.39216 | 9.01672 | 30917 ft | 445 kts | 359° |
| 2026-04-17 11:01 | 44.42323 | 9.01717 | 31127 ft | 447 kts | 359° |
| 2026-04-17 11:01 | 44.45438 | 9.01763 | 31393 ft | 448 kts | 359° |
| 2026-04-17 11:01 | 44.48549 | 9.01808 | 31691 ft | 447 kts | 359° |
| 2026-04-17 11:01 | 44.51662 | 9.01855 | 31967 ft | 447 kts | 359° |
| 2026-04-17 11:02 | 44.54771 | 9.01902 | 32252 ft | 447 kts | 359° |
| 2026-04-17 11:02 | 44.57887 | 9.01944 | 32533 ft | 447 kts | 359° |
| 2026-04-17 11:02 | 44.60999 | 9.01983 | 32817 ft | 447 kts | 359° |
| 2026-04-17 11:02 | 44.64115 | 9.02027 | 33110 ft | 447 kts | 359° |
| 2026-04-17 11:03 | 44.67227 | 9.02079 | 33417 ft | 447 kts | 359° |
| 2026-04-17 11:03 | 44.70340 | 9.02135 | 33695 ft | 447 kts | 359° |
| 2026-04-17 11:03 | 44.73450 | 9.02186 | 33977 ft | 447 kts | 359° |
| 2026-04-17 11:03 | 44.76564 | 9.02233 | 34236 ft | 447 kts | 359° |
| 2026-04-17 11:04 | 44.79675 | 9.02275 | 34501 ft | 447 kts | 359° |
| 2026-04-17 11:04 | 44.82784 | 9.02315 | 34778 ft | 446 kts | 358° |
| 2026-04-17 11:04 | 44.85887 | 9.02357 | 35054 ft | 445 kts | 358° |
| 2026-04-17 11:04 | 44.88986 | 9.02401 | 35319 ft | 445 kts | 358° |
| 2026-04-17 11:05 | 44.92072 | 9.02445 | 35581 ft | 444 kts | 358° |
| 2026-04-17 11:05 | 44.95162 | 9.02490 | 35827 ft | 443 kts | 358° |
| 2026-04-17 11:05 | 44.98241 | 9.02536 | 36061 ft | 442 kts | 358° |
| 2026-04-17 11:05 | 45.01316 | 9.02580 | 36292 ft | 442 kts | 358° |
| 2026-04-17 11:06 | 45.04389 | 9.02621 | 36513 ft | 441 kts | 358° |
| 2026-04-17 11:06 | 45.07456 | 9.02663 | 36734 ft | 440 kts | 358° |
| 2026-04-17 11:06 | 45.10519 | 9.02706 | 36945 ft | 440 kts | 358° |
| 2026-04-17 11:06 | 45.13577 | 9.02749 | 37149 ft | 439 kts | 358° |
| 2026-04-17 11:07 | 45.16633 | 9.02796 | 37347 ft | 439 kts | 358° |
| 2026-04-17 11:07 | 45.19682 | 9.02844 | 37546 ft | 438 kts | 358° |
| 2026-04-17 11:07 | 45.22729 | 9.02893 | 37745 ft | 437 kts | 358° |
| 2026-04-17 11:07 | 45.25768 | 9.02941 | 37937 ft | 437 kts | 358° |
| 2026-04-17 11:08 | 45.28801 | 9.02984 | 38116 ft | 436 kts | 358° |
| 2026-04-17 11:08 | 45.34867 | 9.03067 | 38165 ft | 435 kts | 358° |
| 2026-04-17 11:09 | 45.40916 | 9.03155 | 38163 ft | 434 kts | 358° |
| 2026-04-17 11:09 | 45.46915 | 9.03246 | 38177 ft | 434 kts | 358° |
| 2026-04-17 11:10 | 45.55956 | 9.03375 | 38167 ft | 433 kts | 358° |
| 2026-04-17 11:10 | 45.61978 | 9.03471 | 38194 ft | 433 kts | 358° |
| 2026-04-17 11:11 | 45.68006 | 9.03558 | 38209 ft | 433 kts | 358° |
| 2026-04-17 11:11 | 45.74031 | 9.03647 | 38210 ft | 433 kts | 358° |
| 2026-04-17 11:12 | 45.80057 | 9.03741 | 38209 ft | 433 kts | 358° |
| 2026-04-17 11:12 | 45.86084 | 9.03831 | 38215 ft | 433 kts | 358° |
| 2026-04-17 11:13 | 45.92106 | 9.03920 | 38216 ft | 432 kts | 358° |
| 2026-04-17 11:13 | 45.98119 | 9.04010 | 38217 ft | 432 kts | 358° |
| 2026-04-17 11:14 | 46.04135 | 9.04101 | 38212 ft | 432 kts | 358° |
| 2026-04-17 11:14 | 46.10140 | 9.04187 | 38209 ft | 432 kts | 358° |
| 2026-04-17 11:15 | 46.16151 | 9.04280 | 38212 ft | 432 kts | 358° |
| 2026-04-17 11:15 | 46.22162 | 9.04569 | 38220 ft | 433 kts | 0° |
| 2026-04-17 11:16 | 46.28173 | 9.05050 | 38228 ft | 432 kts | 0° |
| 2026-04-17 11:16 | 46.34179 | 9.05517 | 38219 ft | 432 kts | 0° |
| 2026-04-17 11:17 | 46.40179 | 9.05925 | 38222 ft | 431 kts | 360° |
| 2026-04-17 11:17 | 46.46174 | 9.06310 | 38225 ft | 431 kts | 360° |
| 2026-04-17 11:18 | 46.52158 | 9.06721 | 38233 ft | 430 kts | 360° |
| 2026-04-17 11:18 | 46.58136 | 9.07133 | 38221 ft | 430 kts | 360° |
| 2026-04-17 11:19 | 46.64108 | 9.07541 | 38221 ft | 429 kts | 360° |
| 2026-04-17 11:19 | 46.70055 | 9.07946 | 38231 ft | 428 kts | 360° |
| 2026-04-17 11:20 | 46.75997 | 9.08355 | 38237 ft | 427 kts | 360° |
| 2026-04-17 11:20 | 46.81925 | 9.08764 | 38236 ft | 426 kts | 360° |
| 2026-04-17 11:21 | 46.87844 | 9.09174 | 38234 ft | 426 kts | 360° |
| 2026-04-17 11:21 | 46.92598 | 9.09504 | 38238 ft | 426 kts | 360° |
| 2026-04-17 11:22 | 46.98517 | 9.09905 | 38236 ft | 426 kts | 360° |
| 2026-04-17 11:22 | 47.04394 | 9.10315 | 38242 ft | 426 kts | 360° |
| 2026-04-17 11:23 | 47.10312 | 9.10726 | 38235 ft | 425 kts | 360° |
| 2026-04-17 11:23 | 47.16222 | 9.11140 | 38236 ft | 425 kts | 360° |
| 2026-04-17 11:24 | 47.22129 | 9.11550 | 38230 ft | 425 kts | 360° |
| 2026-04-17 11:24 | 47.28032 | 9.11960 | 38233 ft | 425 kts | 360° |
| 2026-04-17 11:25 | 47.33942 | 9.12379 | 38236 ft | 425 kts | 360° |
| 2026-04-17 11:25 | 47.39853 | 9.12800 | 38239 ft | 425 kts | 360° |
| 2026-04-17 11:26 | 47.45765 | 9.13213 | 38237 ft | 425 kts | 360° |
| 2026-04-17 11:26 | 47.51677 | 9.13622 | 38239 ft | 425 kts | 360° |
| 2026-04-17 11:27 | 47.57589 | 9.14046 | 38235 ft | 425 kts | 360° |
| 2026-04-17 11:27 | 47.63506 | 9.14473 | 38235 ft | 426 kts | 360° |
| 2026-04-17 11:28 | 47.69421 | 9.14894 | 38235 ft | 426 kts | 359° |
| 2026-04-17 11:28 | 47.74340 | 9.15248 | 38235 ft | 426 kts | 359° |
| 2026-04-17 11:29 | 47.80254 | 9.15676 | 38235 ft | 425 kts | 359° |
| 2026-04-17 11:29 | 47.86167 | 9.16090 | 38228 ft | 426 kts | 359° |
| 2026-04-17 11:30 | 47.92083 | 9.16499 | 38232 ft | 426 kts | 359° |
| 2026-04-17 11:30 | 47.98002 | 9.16922 | 38234 ft | 426 kts | 359° |
| 2026-04-17 11:31 | 48.03932 | 9.17361 | 38236 ft | 426 kts | 359° |
| 2026-04-17 11:31 | 48.09856 | 9.17791 | 38239 ft | 426 kts | 359° |
| 2026-04-17 11:32 | 48.15778 | 9.18223 | 38238 ft | 426 kts | 359° |
| 2026-04-17 11:32 | 48.21702 | 9.18924 | 38236 ft | 428 kts | 2° |
| 2026-04-17 11:33 | 48.27612 | 9.20012 | 38234 ft | 428 kts | 4° |
| 2026-04-17 11:33 | 48.33523 | 9.21130 | 38234 ft | 428 kts | 3° |
| 2026-04-17 11:34 | 48.39432 | 9.22144 | 38233 ft | 427 kts | 2° |
| 2026-04-17 11:34 | 48.45345 | 9.23121 | 38230 ft | 427 kts | 2° |
| 2026-04-17 11:35 | 48.51225 | 9.24105 | 38231 ft | 428 kts | 2° |
| 2026-04-17 11:35 | 48.57138 | 9.25116 | 38234 ft | 428 kts | 2° |
| 2026-04-17 11:36 | 48.63051 | 9.26125 | 38238 ft | 427 kts | 2° |
| 2026-04-17 11:36 | 48.68965 | 9.27046 | 38234 ft | 427 kts | 1° |
| 2026-04-17 11:37 | 48.74878 | 9.27919 | 38239 ft | 427 kts | 1° |
| 2026-04-17 11:37 | 48.80791 | 9.28806 | 38236 ft | 427 kts | 1° |
| 2026-04-17 11:38 | 48.86697 | 9.29715 | 38232 ft | 427 kts | 2° |
| 2026-04-17 11:38 | 48.92605 | 9.30628 | 38237 ft | 426 kts | 1° |
| 2026-04-17 11:39 | 48.98508 | 9.31540 | 38233 ft | 426 kts | 1° |
| 2026-04-17 11:39 | 49.04409 | 9.32460 | 38236 ft | 426 kts | 1° |
| 2026-04-17 11:40 | 49.10307 | 9.33373 | 38242 ft | 426 kts | 1° |
| 2026-04-17 11:40 | 49.16204 | 9.34291 | 38239 ft | 426 kts | 1° |
| 2026-04-17 11:41 | 49.22105 | 9.35211 | 38244 ft | 426 kts | 1° |
| 2026-04-17 11:41 | 49.28002 | 9.36127 | 38248 ft | 426 kts | 1° |
| 2026-04-17 11:42 | 49.33896 | 9.37047 | 38249 ft | 426 kts | 1° |
| 2026-04-17 11:42 | 49.39777 | 9.37966 | 38254 ft | 425 kts | 2° |
| 2026-04-17 11:43 | 49.45626 | 9.38891 | 38255 ft | 425 kts | 1° |
| 2026-04-17 11:43 | 49.51514 | 9.39820 | 38255 ft | 425 kts | 2° |
| 2026-04-17 11:44 | 49.57401 | 9.40739 | 38252 ft | 425 kts | 1° |
| 2026-04-17 11:44 | 49.63285 | 9.41665 | 38258 ft | 425 kts | 2° |
| 2026-04-17 11:45 | 49.69169 | 9.42609 | 38258 ft | 425 kts | 2° |
| 2026-04-17 11:45 | 49.75050 | 9.43555 | 38254 ft | 425 kts | 2° |
| 2026-04-17 11:46 | 49.80929 | 9.44492 | 38249 ft | 425 kts | 2° |
| 2026-04-17 11:46 | 49.86812 | 9.45429 | 38260 ft | 425 kts | 2° |
| 2026-04-17 11:47 | 49.92688 | 9.46373 | 38258 ft | 424 kts | 2° |
| 2026-04-17 11:47 | 49.98559 | 9.47307 | 38255 ft | 424 kts | 2° |
| 2026-04-17 11:48 | 50.04398 | 9.47354 | 38251 ft | 416 kts | 346° |
| 2026-04-17 11:48 | 50.09767 | 9.44365 | 38255 ft | 409 kts | 327° |
| 2026-04-17 11:49 | 50.14285 | 9.39058 | 38249 ft | 407 kts | 320° |
| 2026-04-17 11:49 | 50.18685 | 9.33491 | 38247 ft | 407 kts | 320° |
| 2026-04-17 11:50 | 50.23089 | 9.27914 | 38246 ft | 408 kts | 320° |
| 2026-04-17 11:50 | 50.27491 | 9.22324 | 38253 ft | 408 kts | 320° |
| 2026-04-17 11:51 | 50.31886 | 9.16708 | 38250 ft | 408 kts | 319° |
| 2026-04-17 11:51 | 50.36285 | 9.11080 | 38252 ft | 408 kts | 320° |
| 2026-04-17 11:52 | 50.40681 | 9.05457 | 38250 ft | 408 kts | 319° |
| 2026-04-17 11:52 | 50.44946 | 8.99980 | 38254 ft | 408 kts | 319° |
| 2026-04-17 11:53 | 50.49336 | 8.94333 | 38258 ft | 408 kts | 319° |
| 2026-04-17 11:53 | 50.53726 | 8.88685 | 38069 ft | 408 kts | 320° |
| 2026-04-17 11:54 | 50.55959 | 8.85930 | 37708 ft | 408 kts | 321° |
| 2026-04-17 11:54 | 50.56689 | 8.85053 | 37574 ft | 407 kts | 321° |
| 2026-04-17 11:54 | 50.56940 | 8.84754 | 37524 ft | 407 kts | 321° |
| 2026-04-17 11:55 | 50.59106 | 8.81981 | 37109 ft | 406 kts | 320° |
| 2026-04-17 11:55 | 50.61344 | 8.79261 | 36719 ft | 407 kts | 322° |
| 2026-04-17 11:55 | 50.63628 | 8.76612 | 36335 ft | 408 kts | 322° |
| 2026-04-17 11:55 | 50.65922 | 8.73983 | 35950 ft | 408 kts | 322° |
| 2026-04-17 11:56 | 50.68211 | 8.71335 | 35568 ft | 409 kts | 322° |
| 2026-04-17 11:56 | 50.70490 | 8.68651 | 35198 ft | 409 kts | 321° |
| 2026-04-17 11:56 | 50.72755 | 8.65936 | 34822 ft | 409 kts | 321° |
| 2026-04-17 11:56 | 50.75012 | 8.63194 | 34461 ft | 409 kts | 321° |
| 2026-04-17 11:57 | 50.77266 | 8.60445 | 34085 ft | 410 kts | 321° |
| 2026-04-17 11:57 | 50.79518 | 8.57702 | 33665 ft | 408 kts | 321° |
| 2026-04-17 11:57 | 50.81765 | 8.54968 | 33260 ft | 407 kts | 321° |
| 2026-04-17 11:57 | 50.84003 | 8.52242 | 32862 ft | 405 kts | 321° |
| 2026-04-17 11:58 | 50.86231 | 8.49529 | 32458 ft | 403 kts | 321° |
| 2026-04-17 11:58 | 50.88446 | 8.46825 | 32072 ft | 401 kts | 321° |
| 2026-04-17 11:58 | 50.90654 | 8.44126 | 31681 ft | 400 kts | 321° |
| 2026-04-17 11:58 | 50.92852 | 8.41437 | 31312 ft | 398 kts | 321° |
| 2026-04-17 11:59 | 50.95040 | 8.38755 | 30933 ft | 397 kts | 321° |
| 2026-04-17 11:59 | 50.97220 | 8.36089 | 30577 ft | 395 kts | 321° |
| 2026-04-17 11:59 | 50.99391 | 8.33427 | 30228 ft | 394 kts | 321° |
| 2026-04-17 11:59 | 51.01549 | 8.30838 | 29826 ft | 393 kts | 324° |
| 2026-04-17 12:00 | 51.03899 | 8.28627 | 29433 ft | 392 kts | 329° |
| 2026-04-17 12:00 | 51.06279 | 8.26521 | 29042 ft | 391 kts | 329° |
| 2026-04-17 12:00 | 51.08645 | 8.24425 | 28659 ft | 389 kts | 328° |
| 2026-04-17 12:00 | 51.11007 | 8.22326 | 28282 ft | 387 kts | 328° |
| 2026-04-17 12:01 | 51.13354 | 8.20237 | 27905 ft | 386 kts | 328° |
| 2026-04-17 12:01 | 51.15690 | 8.18153 | 27533 ft | 384 kts | 328° |
| 2026-04-17 12:01 | 51.18014 | 8.16074 | 27175 ft | 383 kts | 328° |
| 2026-04-17 12:01 | 51.20334 | 8.13994 | 26811 ft | 381 kts | 328° |
| 2026-04-17 12:02 | 51.22642 | 8.11927 | 26454 ft | 380 kts | 328° |
| 2026-04-17 12:02 | 51.24943 | 8.09865 | 26107 ft | 379 kts | 328° |
| 2026-04-17 12:02 | 51.27238 | 8.07810 | 25761 ft | 377 kts | 328° |
| 2026-04-17 12:02 | 51.29521 | 8.05765 | 25422 ft | 376 kts | 328° |
| 2026-04-17 12:03 | 51.31803 | 8.03717 | 25087 ft | 375 kts | 328° |
| 2026-04-17 12:03 | 51.34075 | 8.01676 | 24755 ft | 374 kts | 328° |
| 2026-04-17 12:03 | 51.35877 | 8.00052 | 24492 ft | 373 kts | 328° |
| 2026-04-17 12:03 | 51.38135 | 7.98017 | 24167 ft | 372 kts | 328° |
| 2026-04-17 12:04 | 51.40385 | 7.95990 | 23842 ft | 371 kts | 328° |
| 2026-04-17 12:04 | 51.42604 | 7.93910 | 23462 ft | 367 kts | 322° |
| 2026-04-17 12:04 | 51.44468 | 7.91174 | 23078 ft | 361 kts | 307° |
| 2026-04-17 12:04 | 51.45784 | 7.87789 | 22703 ft | 357 kts | 292° |
| 2026-04-17 12:05 | 51.46490 | 7.84003 | 22327 ft | 354 kts | 278° |
| 2026-04-17 12:05 | 51.46572 | 7.80151 | 21968 ft | 352 kts | 264° |
| 2026-04-17 12:05 | 51.46048 | 7.76273 | 21605 ft | 352 kts | 255° |
| 2026-04-17 12:05 | 51.45384 | 7.72563 | 21247 ft | 350 kts | 255° |
| 2026-04-17 12:06 | 51.44711 | 7.68818 | 20894 ft | 349 kts | 254° |
| 2026-04-17 12:06 | 51.44038 | 7.65087 | 20540 ft | 347 kts | 254° |
| 2026-04-17 12:06 | 51.43370 | 7.61376 | 20197 ft | 346 kts | 254° |
| 2026-04-17 12:06 | 51.42709 | 7.57682 | 19855 ft | 344 kts | 256° |
| 2026-04-17 12:07 | 51.42332 | 7.53863 | 19512 ft | 342 kts | 267° |
| 2026-04-17 12:07 | 51.42435 | 7.50119 | 19184 ft | 341 kts | 277° |
| 2026-04-17 12:07 | 51.42899 | 7.46390 | 18875 ft | 341 kts | 281° |
| 2026-04-17 12:07 | 51.43377 | 7.42685 | 18574 ft | 340 kts | 280° |
| 2026-04-17 12:08 | 51.43844 | 7.38980 | 18235 ft | 338 kts | 280° |
| 2026-04-17 12:08 | 51.44306 | 7.35291 | 17889 ft | 337 kts | 280° |
| 2026-04-17 12:08 | 51.44771 | 7.31573 | 17538 ft | 335 kts | 280° |
| 2026-04-17 12:08 | 51.45219 | 7.27968 | 17201 ft | 333 kts | 280° |
| 2026-04-17 12:09 | 51.45668 | 7.24337 | 16877 ft | 331 kts | 280° |
| 2026-04-17 12:09 | 51.46116 | 7.20724 | 16545 ft | 329 kts | 280° |
| 2026-04-17 12:09 | 51.46560 | 7.17143 | 16166 ft | 326 kts | 279° |
| 2026-04-17 12:09 | 51.46994 | 7.13632 | 16015 ft | 316 kts | 279° |
| 2026-04-17 12:10 | 51.47545 | 7.10278 | 15891 ft | 308 kts | 294° |
| 2026-04-17 12:10 | 51.48879 | 7.07671 | 15765 ft | 305 kts | 323° |
| 2026-04-17 12:10 | 51.50839 | 7.06503 | 15642 ft | 303 kts | 353° |
| 2026-04-17 12:10 | 51.52889 | 7.07074 | 15519 ft | 302 kts | 24° |
| 2026-04-17 12:11 | 51.54496 | 7.09163 | 15341 ft | 299 kts | 50° |
| 2026-04-17 12:11 | 51.55763 | 7.11811 | 15054 ft | 299 kts | 52° |
| 2026-04-17 12:11 | 51.57005 | 7.14478 | 14778 ft | 297 kts | 52° |
| 2026-04-17 12:12 | 51.59466 | 7.19793 | 14244 ft | 295 kts | 52° |
| 2026-04-17 12:12 | 51.60689 | 7.22430 | 13981 ft | 294 kts | 52° |
| 2026-04-17 12:12 | 51.61910 | 7.25055 | 13700 ft | 292 kts | 52° |
| 2026-04-17 12:12 | 51.63127 | 7.27663 | 13403 ft | 291 kts | 52° |
| 2026-04-17 12:13 | 51.64298 | 7.30298 | 13094 ft | 289 kts | 61° |
| 2026-04-17 12:13 | 51.64830 | 7.33363 | 12750 ft | 285 kts | 91° |
| 2026-04-17 12:13 | 51.64434 | 7.36416 | 12388 ft | 278 kts | 119° |
| 2026-04-17 12:13 | 51.63256 | 7.38799 | 12021 ft | 270 kts | 146° |
| 2026-04-17 12:14 | 51.61603 | 7.40084 | 11656 ft | 262 kts | 171° |
| 2026-04-17 12:14 | 51.59814 | 7.40121 | 11294 ft | 256 kts | 195° |
| 2026-04-17 12:14 | 51.58211 | 7.38984 | 10940 ft | 251 kts | 218° |
| 2026-04-17 12:14 | 51.57031 | 7.36956 | 10589 ft | 249 kts | 234° |
| 2026-04-17 12:15 | 51.56007 | 7.34710 | 10230 ft | 249 kts | 234° |
| 2026-04-17 12:15 | 51.54977 | 7.32477 | 9872 ft | 248 kts | 233° |
| 2026-04-17 12:15 | 51.53944 | 7.30259 | 9513 ft | 247 kts | 233° |
| 2026-04-17 12:15 | 51.52912 | 7.28056 | 9160 ft | 246 kts | 233° |
| 2026-04-17 12:16 | 51.51882 | 7.25866 | 8819 ft | 245 kts | 232° |
| 2026-04-17 12:16 | 51.50849 | 7.23696 | 8464 ft | 244 kts | 232° |
| 2026-04-17 12:16 | 51.49832 | 7.21532 | 8056 ft | 240 kts | 232° |
| 2026-04-17 12:16 | 51.48833 | 7.19397 | 7431 ft | 239 kts | 232° |
| 2026-04-17 12:17 | 51.47836 | 7.17267 | 6822 ft | 238 kts | 232° |
| 2026-04-17 12:17 | 51.46836 | 7.15135 | 6192 ft | 241 kts | 232° |
| 2026-04-17 12:17 | 51.45834 | 7.12999 | 5568 ft | 238 kts | 232° |
| 2026-04-17 12:17 | 51.44860 | 7.10925 | 5174 ft | 227 kts | 232° |
| 2026-04-17 12:18 | 51.43938 | 7.08961 | 4865 ft | 214 kts | 232° |
| 2026-04-17 12:18 | 51.43063 | 7.07101 | 4574 ft | 203 kts | 232° |
| 2026-04-17 12:18 | 51.42241 | 7.05356 | 4324 ft | 190 kts | 232° |
| 2026-04-17 12:18 | 51.41479 | 7.03737 | 4065 ft | 172 kts | 232° |
| 2026-04-17 12:19 | 51.40805 | 7.02307 | 3846 ft | 156 kts | 232° |
| 2026-04-17 12:19 | 51.40169 | 7.00959 | 3640 ft | 145 kts | 232° |
| 2026-04-17 12:19 | 51.39574 | 6.99697 | 3453 ft | 143 kts | 232° |
| 2026-04-17 12:19 | 51.38974 | 6.98427 | 3259 ft | 143 kts | 232° |
| 2026-04-17 12:20 | 51.38372 | 6.97153 | 3070 ft | 144 kts | 232° |
| 2026-04-17 12:20 | 51.37771 | 6.95880 | 2869 ft | 143 kts | 233° |
| 2026-04-17 12:20 | 51.37169 | 6.94607 | 2686 ft | 144 kts | 233° |
| 2026-04-17 12:20 | 51.36569 | 6.93338 | 2488 ft | 143 kts | 233° |
| 2026-04-17 12:21 | 51.35969 | 6.92069 | 2293 ft | 143 kts | 233° |
| 2026-04-17 12:21 | 51.35372 | 6.90803 | 2069 ft | 142 kts | 233° |
| 2026-04-17 12:21 | 51.34779 | 6.89540 | 1905 ft | 142 kts | 233° |
| 2026-04-17 12:21 | 51.34181 | 6.88279 | 1685 ft | 142 kts | 233° |
| 2026-04-17 12:22 | 51.33586 | 6.87025 | 1483 ft | 141 kts | 234° |
| 2026-04-17 12:22 | 51.32998 | 6.85767 | 1287 ft | 141 kts | 233° |
| 2026-04-17 12:22 | 51.32404 | 6.84523 | 1089 ft | 141 kts | 233° |
| 2026-04-17 12:22 | 51.31802 | 6.83282 | 904 ft | 141 kts | 233° |
| 2026-04-17 12:23 | 51.31215 | 6.82031 | 728 ft | 141 kts | 235° |
| 2026-04-17 12:23 | 51.30619 | 6.80788 | 517 ft | 140 kts | 233° |
| 2026-04-17 12:23 | 51.30031 | 6.79546 | 322 ft | 140 kts | 234° |
| 2026-04-17 12:23 | 51.29452 | 6.78334 | 193 ft | 132 kts | 234° |
| 2026-04-17 12:24 | 51.28963 | 6.77301 | 138 ft | 96 kts | 232° |
| 2026-04-17 12:24 | 51.28618 | 6.76579 | 138 ft | 70 kts | 233° |
| 2026-04-17 12:24 | 51.28363 | 6.76073 | 132 ft | 32 kts | 217° |
| 2026-04-17 12:24 | 51.28178 | 6.75943 | 135 ft | 21 kts | 208° |
| 2026-04-17 12:25 | 51.28119 | 6.75894 | 135 ft | 0 kts | 206° |
| 2026-04-17 12:25 | 51.28112 | 6.75889 | 134 ft | 2 kts | 206° |
| 2026-04-17 12:25 | 51.28041 | 6.75837 | 132 ft | 21 kts | 201° |
| 2026-04-17 12:25 | 51.27888 | 6.75817 | 131 ft | 19 kts | 180° |
| 2026-04-17 12:26 | 51.27843 | 6.75946 | 131 ft | 11 kts | 90° |
| 2026-04-17 12:26 | 51.27845 | 6.76067 | 130 ft | 11 kts | 88° |
| 2026-04-17 12:26 | 51.27877 | 6.76160 | 130 ft | 9 kts | 51° |
| 2026-04-17 12:26 | 51.27899 | 6.76212 | 126 ft | 0 kts | 59° |